createdAt,value
2023-03-23T15:57:56.639Z,100342.16
2023-03-23T16:00:28.184Z,100341.90
2023-03-23T16:03:03.011Z,100330.05
2023-03-23T16:05:31.985Z,100333.37
2023-03-23T16:08:00.460Z,100325.70
2023-03-23T16:10:29.105Z,100335.09
2023-03-23T16:12:57.302Z,100339.77
2023-03-23T16:15:25.715Z,100338.83
2023-03-23T16:17:53.844Z,100335.83
2023-03-23T16:20:23.753Z,100336.69
2023-03-23T16:22:52.867Z,100339.08
2023-03-23T16:25:21.303Z,100331.88
2023-03-23T16:27:52.423Z,100333.56
2023-03-23T16:30:27.690Z,100338.11
2023-03-23T16:32:57.603Z,100337.51
2023-03-23T16:35:26.365Z,100329.66
2023-03-23T16:38:07.307Z,100327.23
2023-03-23T16:40:37.780Z,100341.23
2023-03-23T16:43:08.940Z,100349.69
2023-03-23T16:45:43.221Z,100351.05
2023-03-23T16:48:14.048Z,100349.17
2023-03-23T16:50:44.106Z,100348.77
2023-03-23T16:53:12.666Z,100348.58
2023-03-23T16:55:41.126Z,100352.41
2023-03-23T16:58:17.152Z,100351.52
2023-03-23T17:00:49.500Z,100357.77
2023-03-23T17:03:21.980Z,100353.51
2023-03-23T17:05:51.894Z,100354.39
2023-03-23T17:08:21.274Z,100341.84
2023-03-23T17:10:49.854Z,100354.82
2023-03-23T17:13:18.072Z,100351.98
2023-03-23T17:15:47.529Z,100361.73
2023-03-23T17:18:16.668Z,100365.80
2023-03-23T17:20:45.312Z,100363.66
2023-03-23T17:23:13.524Z,100365.59
2023-03-23T17:25:42.236Z,100369.17
2023-03-23T17:28:10.733Z,100362.70
2023-03-23T17:30:44.004Z,100366.48
2023-03-23T17:33:12.968Z,100369.21
2023-03-23T17:35:42.250Z,100371.80
2023-03-23T17:38:11.149Z,100376.64
2023-03-23T17:40:39.311Z,100382.54
2023-03-23T17:43:07.515Z,100387.07
2023-03-23T17:45:36.621Z,100384.67
2023-03-23T17:48:07.912Z,100389.59
2023-03-23T17:50:36.807Z,100393.73
2023-03-23T17:53:05.049Z,100395.27
2023-03-23T17:55:33.346Z,100401.16
2023-03-23T17:58:01.456Z,100407.75
2023-03-23T18:00:29.639Z,100447.69
2023-03-23T18:02:58.172Z,100462.06
2023-03-23T18:05:27.981Z,100460.64
2023-03-23T18:07:56.103Z,100431.38
2023-03-23T18:10:24.225Z,100450.90
2023-03-23T18:12:52.427Z,100451.21
2023-03-23T18:15:20.600Z,100444.60
2023-03-23T18:17:50.734Z,100445.34
2023-03-23T18:20:18.919Z,100442.51
2023-03-23T18:22:47.974Z,100443.65
2023-03-23T18:25:16.229Z,100450.48
2023-03-23T18:27:44.543Z,100462.02
2023-03-23T18:30:12.883Z,100448.04
2023-03-23T18:32:41.776Z,100441.00
2023-03-23T18:35:11.321Z,100442.08
2023-03-23T18:37:39.885Z,100450.40
2023-03-23T18:40:12.140Z,100431.42
2023-03-23T18:42:42.286Z,100438.48
2023-03-23T18:45:11.760Z,100446.20
2023-03-23T18:47:39.982Z,100430.76
2023-03-23T18:50:10.168Z,100433.61
2023-03-23T18:52:38.724Z,100445.67
2023-03-23T18:55:07.174Z,100444.65
2023-03-23T18:57:35.913Z,100444.19
2023-03-23T19:00:04.916Z,100452.11
2023-03-23T19:02:33.180Z,100460.17
2023-03-23T19:05:01.803Z,100461.13
2023-03-23T19:07:31.471Z,100461.19
2023-03-23T19:10:00.201Z,100451.77
2023-03-23T19:12:28.273Z,100447.35
2023-03-23T19:14:56.352Z,100447.92
2023-03-23T19:17:25.333Z,100453.67
2023-03-23T19:19:53.572Z,100456.55
2023-03-23T19:22:21.690Z,100459.32
2023-03-23T19:24:49.845Z,100459.77
2023-03-23T19:27:19.025Z,100454.70
2023-03-23T19:29:47.521Z,100458.05
2023-03-23T19:32:16.048Z,100464.30
2023-03-23T19:34:44.280Z,100469.73
2023-03-23T19:37:12.532Z,100463.65
2023-03-23T19:39:42.559Z,100463.63
2023-03-23T19:42:11.247Z,100474.30
2023-03-23T19:44:39.445Z,100484.06
2023-03-23T19:47:07.670Z,100488.21
2023-03-23T19:49:36.467Z,100489.62
2023-03-23T19:52:11.936Z,100475.23
2023-03-23T19:54:42.243Z,100479.02
2023-03-23T19:57:10.676Z,100490.36
2023-03-23T19:59:39.326Z,100492.52
2023-03-23T20:02:08.323Z,100489.86
2023-03-23T20:04:36.930Z,100498.42
2023-03-23T20:07:07.744Z,100496.31
2023-03-23T20:09:38.118Z,100499.65
2023-03-23T20:12:07.564Z,100503.33
2023-03-23T20:14:37.504Z,100510.48
2023-03-23T20:17:09.885Z,100509.50
2023-03-23T20:19:38.783Z,100511.78
2023-03-23T20:22:07.341Z,100515.01
2023-03-23T20:24:35.805Z,100518.91
2023-03-23T20:27:04.250Z,100520.56
2023-03-23T20:29:33.578Z,100510.95
2023-03-23T20:32:02.257Z,100512.29
2023-03-23T20:34:31.370Z,100513.88
2023-03-23T20:37:01.937Z,100514.70
2023-03-23T20:39:32.756Z,100505.02
2023-03-23T20:42:03.492Z,100528.29
2023-03-23T20:44:34.978Z,100540.42
2023-03-23T20:47:04.687Z,100542.17
2023-03-23T20:49:35.388Z,100540.42
2023-03-23T20:52:06.882Z,100539.76
2023-03-23T20:54:35.896Z,100545.32
2023-03-23T20:57:04.453Z,100549.36
2023-03-23T20:59:32.602Z,100557.09
2023-03-23T21:02:00.895Z,100563.42
2023-03-23T21:04:30.288Z,100564.33
2023-03-23T21:06:58.443Z,100565.44
2023-03-23T21:09:26.835Z,100553.56
2023-03-23T21:11:55.450Z,100518.11
2023-03-23T21:14:23.636Z,100531.51
2023-03-23T21:16:52.798Z,100513.83
2023-03-23T21:19:21.944Z,100514.41
2023-03-23T21:21:56.018Z,100523.52
2023-03-23T21:24:28.289Z,100526.89
2023-03-23T21:27:00.338Z,100525.42
2023-03-23T21:29:28.666Z,100525.61
2023-03-23T21:34:28.746Z,100516.96
2023-03-23T21:36:56.924Z,100504.54
2023-03-23T21:39:26.351Z,100517.45
2023-03-23T21:41:54.831Z,100513.19
2023-03-23T21:44:23.148Z,100520.98
2023-03-23T21:46:52.438Z,100521.58
2023-03-23T21:49:20.736Z,100532.39
2023-03-23T21:51:49.751Z,100539.15
2023-03-23T21:54:17.907Z,100538.48
2023-03-23T21:56:46.128Z,100530.83
2023-03-23T21:59:14.438Z,100528.27
2023-03-23T22:01:42.605Z,100528.95
2023-03-23T22:04:10.716Z,100537.92
2023-03-23T22:06:39.001Z,100542.40
2023-03-23T22:09:07.371Z,100543.52
2023-03-23T22:11:37.290Z,100544.34
2023-03-23T22:14:06.175Z,100543.78
2023-03-23T22:16:34.787Z,100548.26
2023-03-23T22:19:03.471Z,100543.98
2023-03-23T22:21:32.011Z,100536.54
2023-03-23T22:24:01.737Z,100540.27
2023-03-23T22:26:30.557Z,100552.28
2023-03-23T22:29:00.995Z,100558.88
2023-03-23T22:31:34.017Z,100554.23
2023-03-23T22:34:02.947Z,100547.65
2023-03-23T22:36:33.383Z,100547.08
2023-03-23T22:39:01.952Z,100541.32
2023-03-23T22:41:34.203Z,100540.74
2023-03-23T22:44:02.941Z,100541.94
2023-03-23T22:46:31.089Z,100549.20
2023-03-23T22:48:59.153Z,100553.32
2023-03-23T22:51:27.754Z,100549.48
2023-03-23T22:53:57.082Z,100550.16
2023-03-23T22:56:25.496Z,100553.10
2023-03-23T22:58:54.837Z,100544.29
2023-03-23T23:01:23.707Z,100551.48
2023-03-23T23:03:52.247Z,100549.20
2023-03-23T23:06:21.318Z,100549.02
2023-03-23T23:08:49.649Z,100551.73
2023-03-23T23:11:20.722Z,100556.95
2023-03-23T23:13:49.401Z,100558.70
2023-03-23T23:16:18.984Z,100566.89
2023-03-23T23:18:48.472Z,100569.55
2023-03-23T23:21:18.989Z,100566.86
2023-03-23T23:23:47.818Z,100564.66
2023-03-23T23:26:16.820Z,100568.98
2023-03-23T23:28:46.805Z,100566.10
2023-03-23T23:31:31.485Z,100568.99
2023-03-23T23:34:01.657Z,100574.20
2023-03-23T23:36:32.489Z,100574.40
2023-03-23T23:39:01.817Z,100583.63
2023-03-23T23:41:30.864Z,100587.61
2023-03-23T23:44:00.410Z,100585.56
2023-03-23T23:46:32.921Z,100588.02
2023-03-23T23:49:01.310Z,100589.36
2023-03-23T23:51:30.122Z,100586.07
2023-03-23T23:54:01.835Z,100589.73
2023-03-23T23:56:39.147Z,100593.92
2023-03-23T23:59:07.453Z,100594.41
